createdAt,value
2019-05-22T00:02:17.032Z,12.98
2019-05-22T00:04:50.778Z,13.34
2019-05-22T00:07:19.680Z,13.07
2019-05-22T00:09:48.575Z,12.98
2019-05-22T00:12:18.329Z,12.99
2019-05-22T00:14:47.747Z,12.97
2019-05-22T00:17:16.636Z,12.98
2019-05-22T00:19:45.813Z,13.31
2019-05-22T00:22:23.087Z,13.04
2019-05-22T00:24:53.231Z,12.98
2019-05-22T00:27:22.579Z,12.94
2019-05-22T00:29:52.166Z,13.30
2019-05-22T00:32:21.335Z,13.03
2019-05-22T00:34:50.253Z,12.92
2019-05-22T00:37:19.257Z,13.30
2019-05-22T00:39:48.732Z,13.44
2019-05-22T00:42:18.512Z,13.03
2019-05-22T00:44:47.932Z,13.33
2019-05-22T00:47:17.152Z,13.44
2019-05-22T00:49:46.826Z,13.10
2019-05-22T00:52:33.682Z,12.97
2019-05-22T00:55:15.660Z,12.91
2019-05-22T00:58:03.677Z,12.85
2019-05-22T01:00:37.891Z,12.89
2019-05-22T01:03:07.663Z,12.82
2019-05-22T01:05:37.617Z,12.80
2019-05-22T01:08:07.195Z,12.68
2019-05-22T01:10:36.174Z,12.73
2019-05-22T01:13:05.094Z,12.72
2019-05-22T01:15:33.967Z,12.73
2019-05-22T01:18:02.976Z,12.77
2019-05-22T01:20:31.911Z,12.82
2019-05-22T01:23:00.850Z,12.83
2019-05-22T01:25:29.736Z,13.13
2019-05-22T01:27:58.773Z,12.90
2019-05-22T01:30:34.614Z,12.86
2019-05-22T01:33:05.692Z,12.84
2019-05-22T01:35:36.600Z,12.76
2019-05-22T01:38:06.970Z,12.77
2019-05-22T01:40:42.800Z,12.74
2019-05-22T01:43:12.816Z,12.69
2019-05-22T01:45:52.533Z,12.71
2019-05-22T01:48:22.932Z,12.72
2019-05-22T01:50:54.392Z,12.71
2019-05-22T01:53:25.583Z,12.69
2019-05-22T01:55:57.852Z,12.75
2019-05-22T01:58:27.495Z,12.76
2019-05-22T02:00:56.485Z,12.69
2019-05-22T02:03:25.946Z,12.68
2019-05-22T02:05:54.925Z,12.72
2019-05-22T02:08:24.546Z,12.75
2019-05-22T02:10:53.451Z,12.72
2019-05-22T02:13:27.780Z,12.64
2019-05-22T02:15:56.683Z,12.64
2019-05-22T02:18:25.579Z,12.73
2019-05-22T02:20:54.496Z,12.73
2019-05-22T02:23:23.414Z,12.72
2019-05-22T02:25:52.279Z,12.71
2019-05-22T02:28:21.251Z,12.73
2019-05-22T02:30:50.134Z,12.65
2019-05-22T02:33:19.511Z,12.60
2019-05-22T02:35:48.399Z,12.64
2019-05-22T02:38:17.339Z,12.63
2019-05-22T02:40:46.242Z,12.65
2019-05-22T02:43:15.136Z,12.63
2019-05-22T02:45:44.439Z,12.64
2019-05-22T02:48:13.315Z,12.62
2019-05-22T02:50:42.244Z,12.65
2019-05-22T02:53:11.297Z,12.63
2019-05-22T02:55:40.325Z,12.68
2019-05-22T02:58:09.559Z,12.92
2019-05-22T03:00:52.386Z,13.05
2019-05-22T03:03:21.310Z,12.86
2019-05-22T03:05:50.217Z,12.82
2019-05-22T03:08:19.137Z,12.74
2019-05-22T03:10:48.066Z,12.66
2019-05-22T03:13:16.965Z,12.96
2019-05-22T03:15:45.883Z,12.70
2019-05-22T03:18:14.783Z,12.65
2019-05-22T03:20:43.707Z,12.71
2019-05-22T03:23:33.088Z,12.66
2019-05-22T03:26:02.293Z,12.61
2019-05-22T03:28:31.162Z,12.66
2019-05-22T03:31:00.112Z,12.57
2019-05-22T03:33:29.118Z,12.58
2019-05-22T03:36:06.502Z,12.53
2019-05-22T03:38:35.407Z,12.50
2019-05-22T03:41:04.359Z,12.51
2019-05-22T03:43:33.256Z,12.53
2019-05-22T03:46:04.192Z,12.53
2019-05-22T03:48:34.586Z,12.48
2019-05-22T03:51:09.974Z,12.44
2019-05-22T03:53:38.890Z,12.43
2019-05-22T03:56:07.971Z,12.78
2019-05-22T03:58:36.889Z,12.54
2019-05-22T04:01:05.861Z,12.52
2019-05-22T04:03:35.801Z,12.87
2019-05-22T04:06:05.034Z,12.66
2019-05-22T04:08:33.944Z,12.65
2019-05-22T04:11:03.243Z,12.97
2019-05-22T04:13:32.709Z,12.69
2019-05-22T04:16:01.757Z,12.68
2019-05-22T04:18:30.668Z,12.67
2019-05-22T04:20:59.572Z,12.68
2019-05-22T04:23:28.499Z,12.74
2019-05-22T04:25:57.445Z,12.68
2019-05-22T04:28:26.692Z,12.64
2019-05-22T04:30:59.712Z,12.65
2019-05-22T04:33:24.514Z,12.70
2019-05-22T04:35:53.454Z,12.74
2019-05-22T04:38:22.451Z,12.68
2019-05-22T04:40:55.004Z,12.67
2019-05-22T04:43:27.242Z,12.74
2019-05-22T04:45:56.177Z,13.05
2019-05-22T04:48:25.850Z,12.93
2019-05-22T04:50:54.753Z,12.89
2019-05-22T04:53:23.629Z,12.86
2019-05-22T04:55:53.035Z,12.83
2019-05-22T04:58:28.678Z,12.76
2019-05-22T05:00:57.583Z,12.75
2019-05-22T05:03:26.526Z,12.72
2019-05-22T05:05:55.472Z,12.73
2019-05-22T05:08:24.369Z,12.73
2019-05-22T05:10:53.322Z,12.73
2019-05-22T05:13:22.303Z,13.07
2019-05-22T05:15:51.246Z,12.90
2019-05-22T05:18:20.141Z,12.88
2019-05-22T05:20:49.047Z,12.86
2019-05-22T05:23:17.964Z,12.93
2019-05-22T05:25:46.846Z,12.86
2019-05-22T05:28:15.785Z,12.94
2019-05-22T05:30:44.727Z,12.93
2019-05-22T05:33:13.622Z,12.97
2019-05-22T05:35:42.551Z,12.98
2019-05-22T05:38:11.495Z,12.85
2019-05-22T05:40:43.520Z,12.89
2019-05-22T05:43:16.634Z,12.90
2019-05-22T05:45:45.835Z,12.93
2019-05-22T05:48:17.048Z,13.02
2019-05-22T05:51:26.408Z,13.05
2019-05-22T05:54:19.760Z,13.11
2019-05-22T05:56:49.211Z,13.09
2019-05-22T05:59:18.837Z,13.16
2019-05-22T06:01:49.596Z,13.21
2019-05-22T06:04:34.071Z,13.33
2019-05-22T06:07:21.479Z,13.39
2019-05-22T06:10:29.240Z,13.61
2019-05-22T06:12:58.141Z,13.78
2019-05-22T06:15:46.655Z,14.01
2019-05-22T06:18:31.344Z,14.14
2019-05-22T06:21:03.800Z,14.39
2019-05-22T06:24:06.808Z,14.39
2019-05-22T06:27:05.529Z,14.75
2019-05-22T06:30:07.945Z,15.05
2019-05-22T06:33:27.146Z,14.88
2019-05-22T06:35:56.054Z,15.01
2019-05-22T06:38:55.012Z,15.08
2019-05-22T06:41:29.862Z,15.15
2019-05-22T06:44:25.589Z,15.74
2019-05-22T06:46:54.505Z,15.96
2019-05-22T06:49:45.578Z,16.33
2019-05-22T06:52:14.725Z,16.74
2019-05-22T06:54:43.884Z,17.93
2019-05-22T06:57:30.397Z,18.02
2019-05-22T07:00:13.460Z,18.07
2019-05-22T07:02:30.600Z,17.80
2019-05-22T07:04:59.557Z,17.45
2019-05-22T07:07:28.502Z,17.49
2019-05-22T07:09:57.748Z,17.16
2019-05-22T07:12:26.641Z,17.72
2019-05-22T07:15:26.583Z,17.38
2019-05-22T07:17:55.782Z,18.16
2019-05-22T07:20:28.007Z,19.68
2019-05-22T07:22:57.120Z,19.95
2019-05-22T07:25:26.035Z,20.38
2019-05-22T07:27:54.887Z,22.54
2019-05-22T07:30:24.342Z,24.70
2019-05-22T07:32:53.211Z,24.41
2019-05-22T07:35:22.142Z,25.43
2019-05-22T07:37:51.101Z,26.89
2019-05-22T07:40:19.963Z,28.08
2019-05-22T07:42:49.294Z,28.84
2019-05-22T07:45:18.184Z,27.45
2019-05-22T07:47:47.612Z,26.65
2019-05-22T07:50:16.507Z,25.24
2019-05-22T07:52:45.392Z,23.58
2019-05-22T07:55:14.342Z,22.45
2019-05-22T07:57:43.215Z,23.16
2019-05-22T08:00:12.144Z,23.23
2019-05-22T08:02:43.329Z,24.66
2019-05-22T08:05:12.219Z,25.97
2019-05-22T08:07:41.145Z,25.33
2019-05-22T08:10:10.801Z,24.27
2019-05-22T08:12:39.712Z,26.29
2019-05-22T08:15:08.720Z,27.22
2019-05-22T08:17:37.622Z,25.47
2019-05-22T08:20:06.624Z,25.27
2019-05-22T08:22:35.850Z,26.56
2019-05-22T08:25:04.859Z,27.80
2019-05-22T08:27:33.812Z,29.46
2019-05-22T08:30:02.730Z,27.43
2019-05-22T08:32:31.638Z,25.73
2019-05-22T08:35:00.527Z,26.07
2019-05-22T08:37:29.448Z,27.28
2019-05-22T08:39:58.353Z,28.54
2019-05-22T08:42:27.249Z,28.44
2019-05-22T08:44:56.140Z,27.36
2019-05-22T08:47:25.053Z,29.09
2019-05-22T08:49:53.960Z,30.13
2019-05-22T08:52:24.218Z,29.86
2019-05-22T08:54:51.778Z,31.39
2019-05-22T08:57:20.938Z,30.31
2019-05-22T08:59:49.826Z,29.69
2019-05-22T09:02:18.731Z,31.46
2019-05-22T09:04:47.632Z,30.82
2019-05-22T09:07:16.534Z,30.38
2019-05-22T09:09:45.444Z,30.50
2019-05-22T09:12:14.346Z,29.60
2019-05-22T09:14:43.300Z,30.67
2019-05-22T09:17:12.205Z,28.87
2019-05-22T09:19:41.564Z,28.54
2019-05-22T09:22:10.537Z,28.98
2019-05-22T09:24:39.460Z,29.82
2019-05-22T09:27:08.371Z,30.28
2019-05-22T09:29:37.369Z,31.28
2019-05-22T09:32:08.256Z,32.33
2019-05-22T09:34:36.989Z,31.67
2019-05-22T09:37:05.912Z,30.99
2019-05-22T09:39:34.761Z,30.80
2019-05-22T09:42:04.997Z,29.86
2019-05-22T09:44:33.799Z,28.30
2019-05-22T09:47:02.865Z,28.96
2019-05-22T09:49:31.742Z,30.05
2019-05-22T09:52:00.656Z,30.12
2019-05-22T09:54:29.550Z,31.28
2019-05-22T09:56:58.424Z,31.48
2019-05-22T09:59:27.334Z,33.04
2019-05-22T10:01:56.231Z,31.99
2019-05-22T10:04:25.245Z,31.82
2019-05-22T10:06:54.106Z,31.89
2019-05-22T10:09:23.000Z,31.12
2019-05-22T10:11:51.893Z,31.41
2019-05-22T10:14:20.816Z,32.04
2019-05-22T10:16:49.720Z,32.60
2019-05-22T10:19:18.668Z,31.52
2019-05-22T10:21:48.271Z,31.10
2019-05-22T10:24:17.190Z,30.48
2019-05-22T10:26:46.167Z,29.80
2019-05-22T10:29:15.052Z,30.48
2019-05-22T10:31:44.001Z,30.96
2019-05-22T10:34:12.893Z,31.66
2019-05-22T10:36:43.228Z,32.06
2019-05-22T10:39:10.729Z,31.90
2019-05-22T10:41:39.633Z,32.20
2019-05-22T10:44:08.722Z,31.41
2019-05-22T10:46:37.578Z,30.47
2019-05-22T10:49:06.590Z,29.38
2019-05-22T10:51:35.450Z,28.28
2019-05-22T10:54:04.479Z,27.68
2019-05-22T10:56:33.370Z,26.69
2019-05-22T10:59:02.276Z,26.46
2019-05-22T11:01:31.319Z,26.14
2019-05-22T11:04:00.232Z,26.04
2019-05-22T11:06:29.115Z,26.18
2019-05-22T11:08:58.020Z,26.02
2019-05-22T11:11:26.948Z,26.10
2019-05-22T11:14:01.315Z,25.79
2019-05-22T11:16:24.710Z,25.62
2019-05-22T11:18:53.653Z,25.26
2019-05-22T11:21:22.974Z,24.50
2019-05-22T11:23:53.228Z,24.22
2019-05-22T11:26:20.776Z,23.86
2019-05-22T11:28:49.659Z,24.35
2019-05-22T11:31:18.906Z,24.94
2019-05-22T11:33:47.774Z,25.75
2019-05-22T11:36:17.087Z,25.89
2019-05-22T11:38:46.083Z,26.66
2019-05-22T11:41:14.978Z,26.38
2019-05-22T11:43:43.862Z,26.06
2019-05-22T11:46:12.812Z,26.41
2019-05-22T11:48:41.703Z,25.49
2019-05-22T11:51:11.125Z,24.78
2019-05-22T11:53:40.016Z,25.13
2019-05-22T11:56:08.928Z,24.10
2019-05-22T11:58:37.843Z,24.29
2019-05-22T12:01:06.884Z,24.16
2019-05-22T12:03:35.782Z,24.34
2019-05-22T12:06:04.843Z,23.99
2019-05-22T12:08:33.727Z,23.74
2019-05-22T12:11:02.745Z,23.62
2019-05-22T12:13:31.729Z,23.43
2019-05-22T12:16:00.796Z,23.45
2019-05-22T12:18:29.707Z,23.28
2019-05-22T12:20:58.601Z,23.02
2019-05-22T12:23:27.514Z,23.22
2019-05-22T12:25:56.396Z,23.48
2019-05-22T12:28:25.323Z,23.42
2019-05-22T12:30:54.241Z,23.79
2019-05-22T12:33:23.130Z,23.61
2019-05-22T12:35:52.038Z,23.88
2019-05-22T12:38:20.913Z,23.92
2019-05-22T12:40:49.823Z,23.87
2019-05-22T12:43:18.714Z,23.73
2019-05-22T12:45:47.610Z,23.65
2019-05-22T12:48:16.495Z,23.82
2019-05-22T12:50:45.929Z,23.78
2019-05-22T12:53:18.429Z,24.03
2019-05-22T12:55:50.215Z,23.85
2019-05-22T12:58:19.762Z,23.97
2019-05-22T13:00:49.143Z,24.02
2019-05-22T13:03:21.401Z,24.06
2019-05-22T13:05:58.916Z,23.69
2019-05-22T13:08:27.687Z,23.22
2019-05-22T13:10:59.219Z,23.71
2019-05-22T13:13:31.423Z,23.79
2019-05-22T13:16:00.934Z,23.83
2019-05-22T13:18:35.510Z,23.73
2019-05-22T13:21:04.772Z,23.51
2019-05-22T13:23:43.148Z,23.38
2019-05-22T13:26:17.480Z,23.19
2019-05-22T13:28:52.820Z,23.05
2019-05-22T13:31:24.995Z,22.97
2019-05-22T13:33:54.182Z,23.04
2019-05-22T13:36:30.785Z,22.84
2019-05-22T13:39:02.226Z,22.99
2019-05-22T13:41:31.234Z,22.76
2019-05-22T13:44:00.957Z,22.80
2019-05-22T13:46:30.204Z,22.66
2019-05-22T13:48:59.471Z,22.57
2019-05-22T13:51:28.625Z,22.73
2019-05-22T13:54:00.890Z,22.43
2019-05-22T13:56:34.616Z,22.60
2019-05-22T13:59:01.792Z,22.36
2019-05-22T14:01:33.528Z,22.43
2019-05-22T14:04:05.533Z,22.72
2019-05-22T14:06:34.449Z,23.01
2019-05-22T14:09:03.492Z,22.69
2019-05-22T14:11:32.371Z,22.61
2019-05-22T14:14:01.305Z,22.37
2019-05-22T14:16:30.176Z,22.23
2019-05-22T14:18:59.099Z,22.30
2019-05-22T14:21:27.977Z,22.14
2019-05-22T14:23:56.840Z,22.05
2019-05-22T14:26:25.741Z,22.11
2019-05-22T14:28:54.690Z,22.07
2019-05-22T14:31:23.511Z,21.87
2019-05-22T14:33:52.456Z,21.94
2019-05-22T14:36:21.360Z,21.94
2019-05-22T14:38:50.307Z,22.07
2019-05-22T14:41:19.192Z,22.02
2019-05-22T14:43:48.084Z,21.85
2019-05-22T14:46:16.971Z,21.71
2019-05-22T14:48:45.915Z,21.99
2019-05-22T14:51:15.134Z,22.24
2019-05-22T14:53:44.081Z,22.59
2019-05-22T14:56:12.976Z,22.92
2019-05-22T14:58:42.289Z,22.69
2019-05-22T15:01:11.310Z,23.03
2019-05-22T15:03:40.227Z,23.02
2019-05-22T15:06:09.191Z,23.06
2019-05-22T15:08:38.140Z,22.95
2019-05-22T15:11:07.110Z,23.03
2019-05-22T15:13:36.008Z,23.19
2019-05-22T15:16:05.017Z,23.34
2019-05-22T15:18:33.901Z,23.30
2019-05-22T15:21:06.091Z,23.09
2019-05-22T15:23:34.974Z,22.73
2019-05-22T15:26:03.899Z,22.50
2019-05-22T15:28:32.781Z,22.42
2019-05-22T15:31:02.433Z,22.48
2019-05-22T15:33:31.710Z,22.67
2019-05-22T15:36:00.615Z,22.53
2019-05-22T15:38:29.513Z,22.69
2019-05-22T15:40:58.445Z,22.60
2019-05-22T15:43:27.753Z,22.43
2019-05-22T15:45:56.654Z,22.27
2019-05-22T15:48:29.194Z,22.11
2019-05-22T15:50:59.582Z,22.20
2019-05-22T15:53:28.486Z,22.12
2019-05-22T15:55:57.381Z,22.07
2019-05-22T15:58:26.420Z,22.23
2019-05-22T16:00:55.766Z,22.24
2019-05-22T16:03:26.367Z,22.09
2019-05-22T16:05:55.284Z,21.97
2019-05-22T16:08:24.162Z,21.87
2019-05-22T16:10:53.038Z,21.64
2019-05-22T16:13:23.349Z,21.57
2019-05-22T16:15:52.468Z,21.85
2019-05-22T16:18:22.112Z,21.81
2019-05-22T16:20:50.997Z,21.90
2019-05-22T16:23:21.688Z,21.91
2019-05-22T16:25:49.419Z,21.86
2019-05-22T16:28:18.399Z,21.94
2019-05-22T16:30:47.288Z,21.95
2019-05-22T16:33:16.210Z,21.87
2019-05-22T16:35:45.100Z,21.81
2019-05-22T16:38:14.315Z,21.82
2019-05-22T16:40:43.506Z,21.66
2019-05-22T16:43:12.460Z,21.71
2019-05-22T16:45:41.362Z,21.72
2019-05-22T16:48:10.251Z,21.49
2019-05-22T16:50:39.608Z,21.45
2019-05-22T16:53:08.859Z,21.38
2019-05-22T16:55:38.341Z,21.58
2019-05-22T16:58:07.376Z,21.46
2019-05-22T17:00:36.237Z,21.42
2019-05-22T17:03:05.212Z,21.40
2019-05-22T17:05:34.140Z,21.33
2019-05-22T17:08:03.150Z,21.32
2019-05-22T17:10:31.987Z,21.31
2019-05-22T17:13:00.910Z,21.18
2019-05-22T17:15:29.812Z,21.09
2019-05-22T17:17:58.688Z,21.03
2019-05-22T17:20:28.202Z,21.08
2019-05-22T17:22:57.172Z,20.95
2019-05-22T17:25:26.126Z,20.88
2019-05-22T17:27:55.049Z,20.78
2019-05-22T17:30:23.997Z,20.57
2019-05-22T17:32:52.922Z,20.41
2019-05-22T17:35:22.167Z,20.34
2019-05-22T17:37:51.103Z,20.23
2019-05-22T17:40:20.028Z,20.15
2019-05-22T17:42:48.943Z,20.06
2019-05-22T17:45:17.825Z,19.96
2019-05-22T17:47:46.828Z,19.87
2019-05-22T17:50:26.346Z,19.83
2019-05-22T17:52:44.684Z,19.75
2019-05-22T17:55:13.553Z,19.61
2019-05-22T17:57:42.482Z,19.42
2019-05-22T18:00:16.713Z,19.29
2019-05-22T18:02:45.623Z,19.20
2019-05-22T18:05:14.519Z,19.14
2019-05-22T18:07:43.412Z,19.01
2019-05-22T18:10:12.303Z,18.90
2019-05-22T18:12:41.203Z,18.75
2019-05-22T18:15:10.500Z,18.74
2019-05-22T18:17:39.929Z,18.54
2019-05-22T18:20:08.873Z,18.41
2019-05-22T18:22:37.803Z,18.41
2019-05-22T18:25:06.946Z,18.36
2019-05-22T18:27:35.851Z,18.29
2019-05-22T18:30:04.893Z,18.21
2019-05-22T18:32:33.749Z,18.22
2019-05-22T18:35:02.664Z,18.01
2019-05-22T18:37:31.567Z,18.00
2019-05-22T18:40:00.457Z,17.95
2019-05-22T18:42:29.373Z,17.85
2019-05-22T18:44:58.269Z,17.77
2019-05-22T18:47:27.179Z,17.76
2019-05-22T18:49:56.045Z,17.76
2019-05-22T18:52:39.977Z,17.73
2019-05-22T18:54:53.846Z,17.73
2019-05-22T18:57:22.760Z,17.60
2019-05-22T18:59:51.692Z,17.54
2019-05-22T19:02:20.542Z,17.36
2019-05-22T19:04:49.459Z,17.55
2019-05-22T19:07:18.363Z,17.59
2019-05-22T19:09:47.280Z,17.27
2019-05-22T19:12:16.155Z,17.14
2019-05-22T19:14:45.048Z,17.02
2019-05-22T19:17:13.930Z,16.94
2019-05-22T19:19:42.834Z,16.84
2019-05-22T19:22:11.715Z,16.76
2019-05-22T19:24:40.612Z,16.68
2019-05-22T19:27:09.612Z,16.67
2019-05-22T19:29:38.397Z,16.57
2019-05-22T19:32:07.332Z,16.53
2019-05-22T19:34:36.234Z,16.44
2019-05-22T19:37:05.120Z,16.68
2019-05-22T19:39:34.019Z,16.36
2019-05-22T19:42:05.642Z,16.25
2019-05-22T19:44:31.846Z,16.10
2019-05-22T19:47:00.752Z,15.99
2019-05-22T19:49:29.640Z,15.86
2019-05-22T19:51:58.552Z,15.81
2019-05-22T19:54:27.442Z,15.84
2019-05-22T19:56:56.347Z,15.79
2019-05-22T19:59:25.263Z,15.73
2019-05-22T20:01:54.176Z,15.61
2019-05-22T20:04:23.055Z,15.44
2019-05-22T20:06:51.962Z,15.38
2019-05-22T20:09:20.844Z,15.27
2019-05-22T20:11:49.753Z,15.17
2019-05-22T20:14:18.957Z,15.11
2019-05-22T20:16:47.869Z,14.98
2019-05-22T20:19:16.765Z,14.94
2019-05-22T20:21:45.675Z,14.87
2019-05-22T20:24:14.543Z,14.76
2019-05-22T20:26:43.447Z,15.03
2019-05-22T20:29:12.783Z,14.83
2019-05-22T20:31:41.663Z,15.06
2019-05-22T20:34:10.568Z,14.74
2019-05-22T20:36:39.765Z,14.60
2019-05-22T20:39:09.896Z,14.51
2019-05-22T20:41:38.791Z,14.36
2019-05-22T20:44:08.647Z,14.25
2019-05-22T20:46:38.054Z,14.14
2019-05-22T20:49:06.832Z,13.96
2019-05-22T20:51:35.773Z,13.84
2019-05-22T20:54:04.665Z,13.80
2019-05-22T20:56:33.838Z,13.70
2019-05-22T20:59:02.785Z,13.56
2019-05-22T21:01:31.668Z,13.49
2019-05-22T21:04:00.561Z,13.46
2019-05-22T21:06:29.464Z,13.41
2019-05-22T21:08:58.365Z,13.34
2019-05-22T21:11:27.271Z,13.41
2019-05-22T21:13:56.148Z,13.36
2019-05-22T21:16:25.348Z,13.35
2019-05-22T21:18:54.556Z,13.33
2019-05-22T21:21:23.441Z,13.15
2019-05-22T21:23:52.319Z,13.02
2019-05-22T21:26:21.207Z,13.04
2019-05-22T21:28:50.127Z,13.04
2019-05-22T21:31:19.041Z,12.97
2019-05-22T21:33:47.941Z,12.75
2019-05-22T21:36:16.975Z,12.60
2019-05-22T21:38:45.890Z,12.62
2019-05-22T21:41:14.800Z,12.50
2019-05-22T21:43:43.680Z,12.45
2019-05-22T21:46:12.584Z,12.26
2019-05-22T21:48:41.541Z,12.23
2019-05-22T21:51:10.423Z,12.15
2019-05-22T21:53:39.325Z,12.17
2019-05-22T21:56:08.366Z,12.16
2019-05-22T21:58:37.441Z,12.14
2019-05-22T22:01:23.324Z,12.14
2019-05-22T22:03:54.970Z,12.01
2019-05-22T22:06:23.855Z,12.02
2019-05-22T22:08:52.738Z,12.00
2019-05-22T22:11:22.793Z,12.26
2019-05-22T22:13:51.710Z,12.00
2019-05-22T22:16:20.580Z,11.96
2019-05-22T22:18:49.483Z,11.78
2019-05-22T22:21:18.406Z,11.68
2019-05-22T22:23:47.430Z,11.59
2019-05-22T22:26:25.253Z,11.61
2019-05-22T22:28:45.243Z,11.52
2019-05-22T22:31:14.345Z,11.43
2019-05-22T22:33:43.915Z,11.38
2019-05-22T22:36:12.817Z,11.35
2019-05-22T22:38:41.737Z,11.39
2019-05-22T22:41:10.617Z,11.33
2019-05-22T22:43:39.976Z,11.17
2019-05-22T22:46:17.270Z,11.01
2019-05-22T22:48:47.624Z,10.87
2019-05-22T22:51:16.529Z,10.95
2019-05-22T22:53:45.433Z,10.94
2019-05-22T22:56:14.303Z,10.92
2019-05-22T22:58:43.216Z,10.85
2019-05-22T23:01:12.684Z,10.79
2019-05-22T23:03:41.586Z,10.76
2019-05-22T23:06:10.480Z,10.78
2019-05-22T23:08:39.948Z,10.77
2019-05-22T23:11:09.145Z,10.73
2019-05-22T23:13:38.045Z,10.93
2019-05-22T23:16:06.944Z,10.67
2019-05-22T23:19:30.516Z,10.57
2019-05-22T23:22:00.501Z,10.53
2019-05-22T23:24:29.456Z,10.51
2019-05-22T23:26:58.515Z,10.40
2019-05-22T23:29:27.585Z,10.30
2019-05-22T23:31:56.528Z,10.26
2019-05-22T23:34:25.441Z,10.27
2019-05-22T23:36:54.350Z,10.21
2019-05-22T23:39:23.241Z,10.31
2019-05-22T23:41:55.702Z,10.36
2019-05-22T23:44:22.157Z,10.38
2019-05-22T23:46:51.078Z,10.32
2019-05-22T23:49:19.970Z,10.28
2019-05-22T23:51:49.157Z,10.23
2019-05-22T23:54:18.055Z,10.16
2019-05-22T23:56:46.980Z,10.08
2019-05-22T23:59:15.913Z,10.06
